This is the latest recevied weather packets stored in our database for station/object OE6JVE-13. If no packets are shown the sender has not sent any weather packets the latest 1 day(s).
| Time | Temp. | Humidity | Pressure | Rain* | Wind** | Luminosity | Snow |
|---|---|---|---|---|---|---|---|
| 1778057741 | 20° C | 48% | 1003.1 hPa | 0 mm | - | - | - |
| 1778057149 | 21.11° C | 46% | 1003 hPa | 0 mm | - | - | - |
| 1778055373 | 21.11° C | 42% | 1002.9 hPa | 0 mm | - | - | - |
| 1778054780 | 20.56° C | 44% | 1003 hPa | 0 mm | - | - | - |
| 1778053530 | 19.44° C | 55% | 1002.9 hPa | 0 mm | - | - | - |
| 1778051753 | 18.33° C | 60% | 1002.9 hPa | 0 mm | - | - | - |
| 1778051162 | 17.78° C | 60% | 1002.9 hPa | 0 mm | - | - | - |
| 1778048727 | 15.56° C | 71% | 1003.3 hPa | 0 mm | - | - | - |
| 1778048136 | 15° C | 75% | 1003.4 hPa | 0 mm | - | - | - |
| 1778047543 | 13.33° C | 92% | 1003.4 hPa | 0 mm | - | - | - |
| 1778046951 | 11.11° C | 95% | 1003.4 hPa | 0 mm | - | - | - |
| 1778046359 | 10.56° C | 94% | 1003.2 hPa | 0 mm | - | - | - |
| 1778045769 | 10° C | 94% | 1003.3 hPa | 0 mm | - | - | - |
| 1778045175 | 9.44° C | 93% | 1003.3 hPa | 0 mm | - | - | - |
| 1778044517 | 8.89° C | 93% | 1003.4 hPa | 0 mm | - | - | - |
| 1778043925 | 8.89° C | 93% | 1003.3 hPa | 0 mm | - | - | - |
| 1778042740 | 8.33° C | 93% | 1003.1 hPa | 0 mm | - | - | - |
| 1778041556 | 8.33° C | 92% | 1003 hPa | 0 mm | - | - | - |
| 1778040372 | 8.33° C | 92% | 1003 hPa | 0 mm | - | - | - |
| 1778039780 | 8.33° C | 91% | 1002.9 hPa | 0 mm | - | - | - |
| 1778039122 | 7.78° C | 91% | 1002.9 hPa | 0 mm | - | - | - |
| 1778038530 | 7.78° C | 90% | 1002.9 hPa | 0 mm | - | - | - |
| 1778037938 | 8.33° C | 90% | 1003 hPa | 0 mm | - | - | - |
| 1778037346 | 8.33° C | 90% | 1002.9 hPa | 0 mm | - | - | - |
| 1778036754 | 8.33° C | 90% | 1002.9 hPa | 0 mm | - | - | - |
* Rain latest hour (hover to see other rain measurements)
** Current wind speed in m/s (hover to see current wind gust speed)